Troy, New York
Current Conditions -  °F | °C
As of 12:04 AM on Sunday 21 Dec 2014 (Local Time) from KALB Reporting Station
Overcast Overcast  
Wind Chill: 22°   Ceiling: 3100
Heat Index: 28°   Visibility: 10mi
Dew Point: 19°   Wind: 6mph
Humidity: 69%   Direction: 10°N
Pressure: 30.3"   Gusts: NA
Location:  42.73°N, 73.69°W
Report Text: KALB 210504Z 01005KT 10SM OVC031 M02/M07 A3030 RMK AO2 T10221072
Loading
Personal Weather Stations






























Interactive Weather Map New forecast layout! Learn more

10-Day Weather Forecast

Advertisements
Track Severe Weather on mobile